• Join FlightAware (Why Join?)
  • Login
  • US Flag 
Trick or treat! (Boo!!) 
07:52PM EDT


 

Airport Tracker/Info


-or-


 

Live Flight TrackerFlight Track Log ✈ OPT429 ✈ 18-Jun-2014 ✈ KGUY - KMKC

Flight Track Log - Related Links

Times and Time Zones

All times are in EDT time to prevent confusion due to time zone crossing. See the OPT429 flight status page for this flight to view local times or setup timezone preferences in your user account.

Time Position Orientation Groundspeed Altitude Reporting Facility
EDT Latitude Longitude Course Direction KTS MPH feet Rate Location/Type
07:23PM 36.7089 -101.4458 99° East 242 278 9,600  Level Kansas City Center
07:24PM 36.7317 -101.3478 74° East 265 305 11,700 1,860 Climbing Kansas City Center
07:25PM 36.7603 -101.2492 70° East 299 344 13,500 2,160 Climbing Kansas City Center
07:26PM 36.7903 -101.1247 73° East 327 376 16,100 2,340 Climbing Kansas City Center
07:27PM 36.8097 -101.0103 78° East 344 396 18,400 2,220 Climbing Kansas City Center
07:28PM 36.8483 -100.8819 69° East 354 407 20,900 1,980 Climbing Kansas City Center
07:29PM 36.8942 -100.7814 60° Northeast 352 405 22,600 1,740 Climbing Kansas City Center
07:30PM 36.9425 -100.6514 65° Northeast 366 421 24,500 1,620 Climbing Kansas City Center
07:31PM 37.0019 -100.5514 53° Northeast 375 432 26,000 1,560 Climbing Kansas City Center
07:32PM 37.0483 -100.4192 66° East 377 434 27,800 1,440 Climbing Kansas City Center
07:33PM 37.0764 -100.2958 74° East 379 436 29,000 1,200 Climbing Kansas City Center
07:34PM 37.1039 -100.1447 77° East 394 453 30,400 1,200 Climbing Kansas City Center
07:35PM 37.1228 -100.0092 80° East 407 468 31,500 1,140 Climbing Kansas City Center
07:36PM 37.1586 -99.8492 74° East 422 486 32,900 720 Climbing Kansas City Center
07:37PM 37.1972 -99.7069 71° East 439 505 33,000  Climbing Kansas City Center
07:38PM 37.2442 -99.5319 71° East 466 536 33,000  Level Kansas City Center
07:39PM 37.2889 -99.3661 71° East 470 541 33,000  Level Kansas City Center
07:40PM 37.3242 -99.2336 71° East 471 542 33,000  Level Kansas City Center
07:41PM 37.3728 -99.0472 72° East 471 542 33,000 600 Level Kansas City Center
07:42PM 37.4136 -98.8933 71° East 470 541 34,300 1,380 Climbing Kansas City Center
07:43PM 37.4528 -98.7375 72° East 470 541 35,900 1,320 Climbing Kansas City Center
07:44PM 37.4914 -98.5867 72° East 460 529 37,000 480 Climbing Kansas City Center
07:45PM 37.5319 -98.4297 72° East 465 535 37,000  Level Kansas City Center
07:46PM 37.5728 -98.2708 72° East 473 544 37,000  Level Kansas City Center
07:47PM 37.6194 -98.0822 73° East 473 544 37,000  Level Kansas City Center
07:49PM 37.6603 -97.9217 72° East 473 544 37,000  Level Kansas City Center
07:50PM 37.6983 -97.7658 73° East 470 541 37,000 -180 Level Kansas City Center
07:51PM 37.7369 -97.6092 73° East 469 540 36,700 -540 Descending Kansas City Center
07:52PM 37.7975 -97.4486 64° Northeast 461 531 36,000 -960 Descending Kansas City Center
07:53PM 37.8528 -97.3025 64° Northeast 458 527 34,800 -1,320 Descending Kansas City Center
07:54PM 37.9217 -97.1633 58° Northeast 465 535 33,300 -1,500 Descending Kansas City Center
07:55PM 37.9919 -97.0292 56° Northeast 464 534 31,800 -1,500 Descending Kansas City Center
07:56PM 38.0592 -96.9006 56° Northeast 444 511 30,200 -1,680 Descending Kansas City Center
07:57PM 38.1358 -96.7494 57° Northeast 428 493 28,400 -1,680 Descending Kansas City Center
07:58PM 38.1989 -96.6286 56° Northeast 418 481 26,900 -1,500 Descending Kansas City Center
07:59PM 38.2608 -96.5064 57° Northeast 411 473 25,300 -1,560 Descending Kansas City Center
08:00PM 38.3319 -96.3683 57° Northeast 421 484 23,700 -1,560 Descending Kansas City Center
08:01PM 38.3953 -96.2408 58° Northeast 423 487 22,100 -1,440 Descending Kansas City Center
08:02PM 38.4606 -96.1119 57° Northeast 430 495 20,700 -1,380 Descending Kansas City Center
08:03PM 38.5222 -95.9897 57° Northeast 416 479 19,300 -1,200 Descending Kansas City Center
08:04PM 38.5786 -95.8744 58° Northeast 391 450 18,300 -1,200 Descending Kansas City Center
08:05PM 38.6444 -95.7458 57° Northeast 365 420 16,900 -1,200 Descending Kansas City Center
08:06PM 38.6969 -95.6392 58° Northeast 359 413 15,900 -960 Descending Kansas City Center
08:07PM 38.7506 -95.5333 57° Northeast 357 411 14,900 -1,020 Descending Kansas City Center
08:08PM 38.8036 -95.4261 58° Northeast 357 411 13,800 -1,080 Descending Kansas City Center
08:09PM 38.8683 -95.3331 48° Northeast 355 409 12,800 -900 Descending Kansas City Center
08:10PM 38.9428 -95.2283 48° Northeast 337 388 12,000 -420 Descending Kansas City Center
08:11PM 39.0047 -95.1394 48° Northeast 337 388 12,000  Level Kansas City Center
08:12PM 39.0664 -95.0506 48° Northeast 337 388 12,100  Climbing Kansas City Center
08:13PM 39.1289 -94.9622 48° Northeast 338 389 12,100 -420 Level Kansas City Center
08:14PM 39.1908 -94.8747 48° Northeast 337 388 11,300 -1,200 Descending Kansas City Center
08:15PM 39.2844 -94.8219 24° Northeast 306 352 9,700 -1,440 Descending Kansas City Center
08:16PM 39.3181 -94.7361 63° Northeast 290 334 8,400 -1,500 Descending Kansas City Center
08:17PM 39.3061 -94.6389 99° East 278 320 6,700 -1,860 Descending Kansas City Center
08:19PM 39.2864 -94.5494 106° East 271 312 4,600 -1,860 Descending Kansas City Center
08:20PM 39.2322 -94.5567 186° South 204 235 2,800 -1,320 Descending Kansas City Center
08:21PM 39.1858 -94.5750 197° South 135 155 1,900 -780 Descending Kansas City Center
08:22PM 39.1558 -94.5839 193° South 112 129 1,300 -480 Descending Kansas City Center
08:23PM 39.1286 -94.5922 193° South 111 128 1,000 -300 Descending Kansas City Center